createdAt,value
2018-07-27T00:00:52.566Z,55.42
2018-07-27T00:01:52.537Z,56.05
2018-07-27T00:02:52.525Z,55.15
2018-07-27T00:03:52.516Z,55.35
2018-07-27T00:04:52.505Z,53.74
2018-07-27T00:05:52.515Z,55.55
2018-07-27T00:06:52.492Z,54.94
2018-07-27T00:07:52.486Z,55.44
2018-07-27T00:08:52.466Z,55.74
2018-07-27T00:09:52.450Z,55.72
2018-07-27T00:10:52.461Z,55.94
2018-07-27T00:11:52.429Z,54.85
2018-07-27T00:12:52.418Z,53.32
2018-07-27T00:13:52.407Z,55.82
2018-07-27T00:14:52.396Z,54.99
2018-07-27T00:15:52.405Z,55.02
2018-07-27T00:16:52.381Z,54.82
2018-07-27T00:17:52.365Z,55.02
2018-07-27T00:18:52.354Z,54.72
2018-07-27T00:19:52.344Z,54.42
2018-07-27T00:20:52.354Z,54.92
2018-07-27T00:21:52.324Z,55.82
2018-07-27T00:22:52.311Z,54.02
2018-07-27T00:23:52.301Z,54.02
2018-07-27T00:24:52.292Z,53.82
2018-07-27T00:25:52.298Z,54.42
2018-07-27T00:26:52.269Z,54.32
2018-07-27T00:27:52.257Z,55.12
2018-07-27T00:28:52.247Z,54.32
2018-07-27T00:29:52.238Z,54.74
2018-07-27T00:30:52.244Z,55.94
2018-07-27T00:31:52.215Z,55.15
2018-07-27T00:32:52.209Z,55.35
2018-07-27T00:33:52.197Z,54.85
2018-07-27T00:34:52.183Z,55.05
2018-07-27T00:35:52.199Z,55.55
2018-07-27T00:36:52.179Z,55.15
2018-07-27T00:37:52.152Z,53.12
2018-07-27T00:38:52.141Z,54.02
2018-07-27T00:39:52.130Z,54.52
2018-07-27T00:40:52.139Z,54.42
2018-07-27T00:41:52.108Z,54.55
2018-07-27T00:42:52.101Z,54.92
2018-07-27T00:43:52.087Z,54.94
2018-07-27T00:44:52.102Z,55.85
2018-07-27T00:45:52.085Z,55.65
2018-07-27T00:46:52.059Z,56.35
2018-07-27T00:47:52.044Z,55.74
2018-07-27T00:48:52.034Z,57.15
2018-07-27T00:49:52.034Z,56.65
2018-07-27T00:50:52.038Z,55.87
2018-07-27T00:51:52.001Z,56.07
2018-07-27T00:52:51.990Z,56.77
2018-07-27T00:53:51.990Z,57.37
2018-07-27T00:54:51.969Z,55.87
2018-07-27T00:55:51.977Z,58.50
2018-07-27T00:56:51.948Z,56.80
2018-07-27T00:57:51.937Z,57.20
2018-07-27T00:58:51.928Z,57.93
2018-07-27T00:59:51.925Z,58.13
2018-07-27T01:00:51.925Z,58.73
2018-07-27T01:01:51.919Z,57.93
2018-07-27T01:02:51.897Z,57.93
2018-07-27T01:03:51.872Z,58.53
2018-07-27T01:04:51.865Z,58.46
2018-07-27T01:05:51.871Z,58.26
2018-07-27T01:06:51.840Z,58.36
2018-07-27T01:07:51.831Z,58.56
2018-07-27T01:08:51.818Z,58.36
2018-07-27T01:09:51.807Z,59.99
2018-07-27T01:10:51.817Z,60.29
2018-07-27T01:11:51.786Z,59.49
2018-07-27T01:12:51.774Z,60.10
2018-07-27T01:13:51.768Z,61.50
2018-07-27T01:14:51.759Z,62.13
2018-07-27T01:15:51.764Z,60.12
2018-07-27T01:16:51.740Z,60.93
2018-07-27T01:17:51.720Z,60.02
2018-07-27T01:18:51.709Z,62.53
2018-07-27T01:19:51.698Z,60.72
2018-07-27T01:20:51.714Z,61.72
2018-07-27T01:21:51.676Z,61.02
2018-07-27T01:22:51.667Z,60.85
2018-07-27T01:23:51.655Z,60.25
2018-07-27T01:24:51.644Z,61.05
2018-07-27T01:25:51.652Z,62.96
2018-07-27T01:26:51.622Z,62.66
2018-07-27T01:27:51.611Z,62.46
2018-07-27T01:28:51.601Z,63.56
2018-07-27T01:29:51.590Z,62.66
2018-07-27T01:30:51.598Z,62.49
2018-07-27T01:31:51.614Z,62.79
2018-07-27T01:32:51.558Z,62.99
2018-07-27T01:33:51.546Z,61.29
2018-07-27T01:34:51.535Z,61.69
2018-07-27T01:35:51.543Z,61.69
2018-07-27T01:36:51.514Z,64.40
2018-07-27T01:37:51.506Z,62.22
2018-07-27T01:38:51.493Z,61.79
2018-07-27T01:39:51.487Z,63.09
2018-07-27T01:40:51.497Z,61.91
2018-07-27T01:41:51.459Z,63.42
2018-07-27T01:42:51.446Z,61.69
2018-07-27T01:43:51.448Z,61.79
2018-07-27T01:44:51.426Z,62.08
2018-07-27T01:45:51.432Z,62.79
2018-07-27T01:46:51.403Z,60.48
2018-07-27T01:47:51.392Z,62.49
2018-07-27T01:48:51.380Z,61.18
2018-07-27T01:49:51.371Z,61.49
2018-07-27T01:50:51.382Z,62.46
2018-07-27T01:51:51.348Z,60.96
2018-07-27T01:52:51.349Z,64.70
2018-07-27T01:53:51.329Z,60.45
2018-07-27T01:54:51.314Z,61.35
2018-07-27T01:55:51.342Z,63.56
2018-07-27T01:56:51.292Z,61.05
2018-07-27T01:57:51.284Z,63.06
2018-07-27T01:58:51.269Z,64.47
2018-07-27T01:59:51.259Z,62.99
2018-07-27T02:00:51.274Z,64.10
2018-07-27T02:01:51.236Z,62.89
2018-07-27T02:02:51.226Z,63.39
2018-07-27T02:03:51.217Z,66.51
2018-07-27T02:04:51.203Z,66.54
2018-07-27T02:05:51.208Z,66.74
2018-07-27T02:06:51.201Z,64.03
2018-07-27T02:07:51.171Z,65.33
2018-07-27T02:08:51.164Z,65.13
2018-07-27T02:09:51.152Z,64.53
2018-07-27T02:10:51.142Z,64.66
2018-07-27T02:11:51.151Z,64.76
2018-07-27T02:12:51.115Z,64.46
2018-07-27T02:13:51.103Z,64.46
2018-07-27T02:14:51.101Z,65.47
2018-07-27T02:15:51.084Z,65.87
2018-07-27T02:16:51.092Z,65.87
2018-07-27T02:17:51.059Z,65.06
2018-07-27T02:18:51.049Z,64.96
2018-07-27T02:19:51.038Z,64.36
2018-07-27T02:20:51.028Z,64.06
2018-07-27T02:21:51.049Z,65.56
2018-07-27T02:22:51.006Z,63.35
2018-07-27T02:23:50.996Z,64.16
2018-07-27T02:24:50.984Z,64.23
2018-07-27T02:25:50.975Z,63.82
2018-07-27T02:26:50.981Z,63.53
2018-07-27T02:27:50.952Z,65.13
2018-07-27T02:28:50.940Z,63.73
2018-07-27T02:29:50.944Z,65.16
2018-07-27T02:30:50.929Z,64.16
2018-07-27T02:31:50.928Z,65.16
2018-07-27T02:32:50.905Z,64.76
2018-07-27T02:33:50.996Z,64.86
2018-07-27T02:34:50.877Z,65.26
2018-07-27T02:35:50.864Z,65.16
2018-07-27T02:36:50.878Z,65.59
2018-07-27T02:37:50.845Z,64.76
2018-07-27T02:38:50.845Z,64.96
2018-07-27T02:39:50.851Z,65.90
2018-07-27T02:40:50.811Z,64.46
2018-07-27T02:41:50.824Z,63.65
2018-07-27T02:42:50.789Z,63.05
2018-07-27T02:43:50.778Z,65.87
2018-07-27T02:44:50.769Z,65.06
2018-07-27T02:45:50.757Z,64.96
2018-07-27T02:46:50.764Z,64.56
2018-07-27T02:47:50.734Z,64.06
2018-07-27T02:48:50.723Z,64.16
2018-07-27T02:49:50.714Z,63.25
2018-07-27T02:50:50.703Z,63.12
2018-07-27T02:51:50.713Z,62.62
2018-07-27T02:52:50.682Z,63.73
2018-07-27T02:53:50.671Z,63.53
2018-07-27T02:54:50.662Z,62.82
2018-07-27T02:55:50.651Z,63.53
2018-07-27T02:56:50.660Z,62.42
2018-07-27T02:57:50.647Z,64.63
2018-07-27T02:58:50.616Z,63.56
2018-07-27T02:59:50.609Z,65.26
2018-07-27T03:00:50.594Z,63.96
2018-07-27T03:01:50.605Z,66.57
2018-07-27T03:02:50.572Z,67.27
2018-07-27T03:03:50.568Z,68.82
2018-07-27T03:04:50.551Z,67.00
2018-07-27T03:05:50.541Z,66.94
2018-07-27T03:06:50.548Z,67.64
2018-07-27T03:07:50.522Z,68.35
2018-07-27T03:08:50.507Z,68.48
2018-07-27T03:09:50.573Z,69.09
2018-07-27T03:10:50.486Z,69.99
2018-07-27T03:11:50.494Z,68.21
2018-07-27T03:12:50.463Z,69.32
2018-07-27T03:13:50.472Z,69.12
2018-07-27T03:14:50.448Z,69.65
2018-07-27T03:15:50.450Z,70.26
2018-07-27T03:16:50.444Z,71.47
2018-07-27T03:17:50.409Z,71.47
2018-07-27T03:18:50.415Z,70.86
2018-07-27T03:19:50.398Z,71.30
2018-07-27T03:20:50.377Z,73.72
2018-07-27T03:21:50.411Z,72.41
2018-07-27T03:22:50.358Z,75.13
2018-07-27T03:23:50.349Z,72.31
2018-07-27T03:24:50.352Z,73.55
2018-07-27T03:25:50.323Z,73.65
2018-07-27T03:26:50.333Z,74.05
2018-07-27T03:27:50.302Z,73.96
2018-07-27T03:28:50.295Z,73.65
2018-07-27T03:29:50.281Z,74.56
2018-07-27T03:30:50.285Z,75.27
2018-07-27T03:31:50.323Z,73.49
2018-07-27T03:32:50.249Z,75.40
2018-07-27T03:33:50.239Z,75.00
2018-07-27T03:34:50.229Z,75.40
2018-07-27T03:35:50.230Z,76.31
2018-07-27T03:36:50.207Z,74.19
2018-07-27T03:37:50.218Z,75.24
2018-07-27T03:38:50.186Z,74.93
2018-07-27T03:39:50.187Z,76.95
2018-07-27T03:40:50.167Z,76.04
2018-07-27T03:41:50.180Z,77.06
2018-07-27T03:42:50.171Z,76.75
2018-07-27T03:43:50.174Z,77.90
2018-07-27T03:44:50.123Z,79.21
2018-07-27T03:45:50.111Z,79.72
2018-07-27T03:46:50.100Z,78.61
2018-07-27T03:47:50.089Z,79.52
2018-07-27T03:48:50.101Z,78.91
2018-07-27T03:49:50.071Z,79.01
2018-07-27T03:50:50.084Z,80.16
2018-07-27T03:51:50.050Z,78.85
2018-07-27T03:52:50.041Z,79.05
2018-07-27T03:53:50.044Z,78.10
2018-07-27T03:54:50.030Z,79.62
2018-07-27T03:55:50.008Z,77.19
2018-07-27T03:56:49.996Z,78.91
2018-07-27T03:57:49.985Z,79.32
2018-07-27T03:58:49.991Z,79.41
2018-07-27T03:59:49.964Z,77.80
2018-07-27T04:00:49.952Z,78.04
2018-07-27T04:01:49.943Z,79.35
2018-07-27T04:02:49.940Z,79.35
2018-07-27T04:03:49.952Z,79.55
2018-07-27T04:04:49.909Z,77.84
2018-07-27T04:05:49.896Z,79.75
2018-07-27T04:06:49.917Z,80.06
2018-07-27T04:07:49.875Z,80.57
2018-07-27T04:08:49.893Z,80.46
2018-07-27T04:09:49.855Z,79.75
2018-07-27T04:10:49.842Z,80.16
2018-07-27T04:11:49.831Z,79.55
2018-07-27T04:12:49.823Z,79.86
2018-07-27T04:13:49.826Z,79.86
2018-07-27T04:14:49.865Z,79.96
2018-07-27T04:15:49.796Z,80.46
2018-07-27T04:16:49.808Z,79.96
2018-07-27T04:17:49.786Z,79.52
2018-07-27T04:18:49.756Z,79.52
2018-07-27T04:19:49.766Z,81.68
2018-07-27T04:20:49.733Z,79.55
2018-07-27T04:21:49.731Z,79.55
2018-07-27T04:22:49.724Z,80.57
2018-07-27T04:23:49.708Z,79.25
2018-07-27T04:24:49.729Z,80.57
2018-07-27T04:25:49.680Z,79.41
2018-07-27T04:26:49.669Z,79.21
2018-07-27T04:27:49.668Z,79.52
2018-07-27T04:28:49.650Z,79.52
2018-07-27T04:29:49.638Z,78.81
2018-07-27T04:30:49.647Z,75.78
2018-07-27T04:31:49.631Z,78.06
2018-07-27T04:32:49.605Z,79.38
2018-07-27T04:33:49.592Z,76.95
2018-07-27T04:34:49.585Z,77.06
2018-07-27T04:35:49.601Z,75.64
2018-07-27T04:36:49.570Z,77.15
2018-07-27T04:37:49.550Z,76.55
2018-07-27T04:38:49.539Z,77.83
2018-07-27T04:39:49.568Z,79.14
2018-07-27T04:40:49.537Z,75.71
2018-07-27T04:41:49.506Z,76.48
2018-07-27T04:42:49.520Z,75.37
2018-07-27T04:43:49.486Z,75.37
2018-07-27T04:44:49.478Z,76.98
2018-07-27T04:45:49.493Z,76.84
2018-07-27T04:46:49.455Z,77.25
2018-07-27T04:47:49.446Z,76.84
2018-07-27T04:48:49.435Z,79.73
2018-07-27T04:49:49.420Z,77.86
2018-07-27T04:50:49.427Z,75.03
2018-07-27T04:51:49.398Z,77.72
2018-07-27T04:52:49.387Z,76.71
2018-07-27T04:53:49.386Z,77.21
2018-07-27T04:54:49.374Z,77.62
2018-07-27T04:55:49.381Z,75.20
2018-07-27T04:56:49.357Z,76.91
2018-07-27T04:57:49.334Z,75.16
2018-07-27T04:58:49.329Z,74.86
2018-07-27T04:59:49.318Z,75.73
2018-07-27T05:00:49.358Z,75.83
2018-07-27T05:01:49.305Z,75.09
2018-07-27T05:02:49.290Z,74.58
2018-07-27T05:03:49.282Z,73.28
2018-07-27T05:04:49.281Z,74.75
2018-07-27T05:05:49.313Z,72.54
2018-07-27T05:06:49.284Z,72.74
2018-07-27T05:07:49.230Z,71.80
2018-07-27T05:08:49.221Z,73.11
2018-07-27T05:09:49.226Z,71.70
2018-07-27T05:10:49.195Z,72.37
2018-07-27T05:11:49.265Z,72.27
2018-07-27T05:12:49.175Z,73.44
2018-07-27T05:13:49.163Z,72.03
2018-07-27T05:14:49.152Z,73.50
2018-07-27T05:15:49.151Z,73.41
2018-07-27T05:16:49.163Z,72.10
2018-07-27T05:17:49.122Z,71.97
2018-07-27T05:18:49.109Z,72.37
2018-07-27T05:19:49.097Z,69.53
2018-07-27T05:20:49.086Z,72.33
2018-07-27T05:21:49.093Z,71.23
2018-07-27T05:22:49.064Z,69.19
2018-07-27T05:23:49.055Z,69.99
2018-07-27T05:24:49.047Z,71.00
2018-07-27T05:25:49.035Z,68.35
2018-07-27T05:26:49.044Z,69.86
2018-07-27T05:27:49.010Z,69.35
2018-07-27T05:28:49.024Z,70.16
2018-07-27T05:29:48.989Z,71.06
2018-07-27T05:30:48.979Z,72.13
2018-07-27T05:31:49.006Z,68.26
2018-07-27T05:32:48.964Z,71.96
2018-07-27T05:33:48.965Z,69.35
2018-07-27T05:34:48.938Z,71.23
2018-07-27T05:35:48.924Z,67.22
2018-07-27T05:36:48.932Z,68.12
2018-07-27T05:37:48.904Z,68.62
2018-07-27T05:38:48.904Z,69.32
2018-07-27T05:39:48.883Z,69.53
2018-07-27T05:40:48.869Z,69.53
2018-07-27T05:41:48.878Z,68.22
2018-07-27T05:42:48.852Z,70.43
2018-07-27T05:43:48.849Z,69.32
2018-07-27T05:44:48.828Z,70.23
2018-07-27T05:45:48.820Z,70.03
2018-07-27T05:46:48.866Z,70.12
2018-07-27T05:47:48.824Z,70.93
2018-07-27T05:48:48.796Z,71.00
2018-07-27T05:49:48.776Z,68.29
2018-07-27T05:50:48.782Z,70.09
2018-07-27T05:51:48.788Z,68.19
2018-07-27T05:52:48.756Z,67.09
2018-07-27T05:53:48.754Z,66.78
2018-07-27T05:54:48.724Z,65.55
2018-07-27T05:55:48.718Z,65.75
2018-07-27T05:56:48.726Z,66.96
2018-07-27T05:57:48.692Z,68.36
2018-07-27T05:58:48.677Z,70.03
2018-07-27T05:59:48.676Z,67.82
2018-07-27T06:00:48.655Z,67.93
2018-07-27T06:01:48.645Z,67.32
2018-07-27T06:02:48.673Z,67.02
2018-07-27T06:03:48.623Z,63.82
2018-07-27T06:04:48.661Z,66.69
2018-07-27T06:05:48.601Z,64.99
2018-07-27T06:06:48.594Z,63.06
2018-07-27T06:07:48.620Z,65.33
2018-07-27T06:08:48.606Z,62.63
2018-07-27T06:09:48.565Z,60.14
2018-07-27T06:10:48.580Z,66.30
2018-07-27T06:11:48.541Z,65.20
2018-07-27T06:12:48.549Z,60.00
2018-07-27T06:13:48.518Z,65.97
2018-07-27T06:14:48.512Z,68.16
2018-07-27T06:15:48.495Z,66.00
2018-07-27T06:16:48.485Z,67.90
2018-07-27T06:17:48.574Z,61.80
2018-07-27T06:18:48.463Z,60.58
2018-07-27T06:19:48.452Z,59.38
2018-07-27T06:20:48.443Z,57.58
2018-07-27T06:21:48.435Z,58.48
2018-07-27T06:22:48.444Z,59.28
2018-07-27T06:23:48.461Z,60.38
2018-07-27T06:24:48.428Z,62.15
2018-07-27T06:25:48.400Z,60.25
2018-07-27T06:26:48.378Z,59.95
2018-07-27T06:27:48.426Z,59.65
2018-07-27T06:28:48.374Z,57.65
2018-07-27T06:29:48.374Z,61.55
2018-07-27T06:30:48.335Z,59.35
2018-07-27T06:31:48.328Z,61.35
2018-07-27T06:32:48.334Z,60.85
2018-07-27T06:33:48.320Z,62.01
2018-07-27T06:34:48.300Z,65.01
2018-07-27T06:35:48.285Z,63.01
2018-07-27T06:36:48.285Z,62.61
2018-07-27T06:37:48.285Z,62.51
2018-07-27T06:38:48.284Z,62.51
2018-07-27T06:39:48.278Z,62.01
2018-07-27T06:40:48.228Z,59.30
2018-07-27T06:41:48.217Z,60.49
2018-07-27T06:42:48.227Z,61.09
2018-07-27T06:43:48.196Z,60.19
2018-07-27T06:44:48.193Z,57.30
2018-07-27T06:45:48.177Z,56.48
2018-07-27T06:46:48.166Z,61.79
2018-07-27T06:47:48.175Z,58.97
2018-07-27T06:48:48.148Z,54.79
2018-07-27T06:49:48.137Z,62.95
2018-07-27T06:50:48.143Z,60.13
2018-07-27T06:51:48.110Z,61.43
2018-07-27T06:52:48.118Z,61.23
2018-07-27T06:53:48.089Z,55.35
2018-07-27T06:54:48.079Z,64.72
2018-07-27T06:55:48.067Z,55.65
2018-07-27T06:56:48.057Z,58.64
2018-07-27T06:57:48.067Z,60.30
2018-07-27T06:58:48.034Z,59.41
2018-07-27T06:59:48.028Z,58.11
2018-07-27T07:00:48.038Z,55.43
2018-07-27T07:01:48.002Z,58.61
2018-07-27T07:02:48.012Z,60.60
2018-07-27T07:03:47.982Z,58.91
2018-07-27T07:04:47.972Z,61.60
2018-07-27T07:05:47.964Z,56.70
2018-07-27T07:06:47.959Z,56.92
2018-07-27T07:07:47.967Z,56.79
2018-07-27T07:08:47.928Z,54.60
2018-07-27T07:09:47.919Z,58.48
2018-07-27T07:10:47.910Z,56.87
2018-07-27T07:11:47.929Z,57.86
2018-07-27T07:12:47.887Z,56.96
2018-07-27T07:13:47.895Z,56.67
2018-07-27T07:14:47.863Z,55.40
2018-07-27T07:15:47.865Z,59.55
2018-07-27T07:16:47.841Z,57.56
2018-07-27T07:17:47.833Z,60.64
2018-07-27T07:18:47.840Z,58.16
2018-07-27T07:19:47.842Z,57.34
2018-07-27T07:20:47.800Z,54.75
2018-07-27T07:21:47.793Z,55.12
2018-07-27T07:22:47.806Z,55.22
2018-07-27T07:23:47.860Z,54.72
2018-07-27T07:24:47.779Z,54.30
2018-07-27T07:25:47.988Z,57.08
2018-07-27T07:26:47.736Z,56.19
2018-07-27T07:27:47.725Z,54.70
2018-07-27T07:28:47.721Z,54.90
2018-07-27T07:29:47.723Z,55.19
2018-07-27T07:30:47.712Z,53.11
2018-07-27T07:31:47.695Z,55.19
2018-07-27T07:32:47.677Z,55.36
2018-07-27T07:33:47.665Z,56.66
2018-07-27T07:34:47.671Z,53.56
2018-07-27T07:35:47.642Z,54.55
2018-07-27T07:36:47.633Z,52.76
2018-07-27T07:37:47.621Z,53.06
2018-07-27T07:38:47.610Z,54.22
2018-07-27T07:39:47.619Z,54.72
2018-07-27T07:40:47.590Z,52.54
2018-07-27T07:41:47.593Z,54.00
2018-07-27T07:42:47.572Z,51.42
2018-07-27T07:43:47.576Z,51.32
2018-07-27T07:44:47.574Z,53.67
2018-07-27T07:45:47.545Z,51.40
2018-07-27T07:46:47.524Z,51.50
2018-07-27T07:47:47.517Z,53.48
2018-07-27T07:48:47.504Z,49.29
2018-07-27T07:49:47.501Z,49.99
2018-07-27T07:50:47.508Z,51.67
2018-07-27T07:51:47.474Z,51.07
2018-07-27T07:52:47.463Z,56.30
2018-07-27T07:53:47.490Z,48.18
2018-07-27T07:54:47.438Z,57.18
2018-07-27T07:55:47.447Z,51.65
2018-07-27T07:56:47.416Z,55.51
2018-07-27T07:57:47.409Z,53.55
2018-07-27T07:58:47.414Z,51.97
2018-07-27T07:59:47.383Z,52.66
2018-07-27T08:00:47.394Z,49.49
2018-07-27T08:01:47.362Z,57.41
2018-07-27T08:02:47.355Z,55.13
2018-07-27T08:03:47.351Z,49.79
2018-07-27T08:04:47.331Z,53.06
2018-07-27T08:05:47.350Z,47.61
2018-07-27T08:06:47.308Z,53.42
2018-07-27T08:07:47.297Z,52.54
2018-07-27T08:08:47.300Z,50.04
2018-07-27T08:09:47.276Z,47.37
2018-07-27T08:10:47.306Z,50.34
2018-07-27T08:11:47.338Z,50.12
2018-07-27T08:12:47.305Z,51.30
2018-07-27T08:13:47.339Z,46.66
2018-07-27T08:14:47.267Z,47.81
2018-07-27T08:15:47.252Z,49.40
2018-07-27T08:16:47.400Z,48.98
2018-07-27T08:17:47.318Z,47.50
2018-07-27T08:18:47.252Z,47.60
2018-07-27T08:19:47.187Z,48.96
2018-07-27T08:20:47.175Z,50.34
2018-07-27T08:21:47.170Z,46.59
2018-07-27T08:22:47.142Z,48.93
2018-07-27T08:23:47.143Z,45.75
2018-07-27T08:24:47.120Z,46.52
2018-07-27T08:25:47.110Z,48.10
2018-07-27T08:26:47.136Z,44.55
2018-07-27T08:27:47.111Z,47.88
2018-07-27T08:28:47.077Z,45.71
2018-07-27T08:29:47.067Z,42.95
2018-07-27T08:30:47.085Z,45.71
2018-07-27T08:31:47.065Z,42.85
2018-07-27T08:32:47.064Z,40.27
2018-07-27T08:33:47.025Z,45.56
2018-07-27T08:34:47.030Z,48.03
2018-07-27T08:35:47.027Z,39.34
2018-07-27T08:36:47.002Z,37.95
2018-07-27T08:37:47.010Z,40.80
2018-07-27T08:38:46.987Z,39.50
2018-07-27T08:39:47.026Z,40.29
2018-07-27T08:40:46.955Z,37.74
2018-07-27T08:41:46.972Z,37.92
2018-07-27T08:42:46.938Z,41.35
2018-07-27T08:43:46.949Z,40.86
2018-07-27T08:44:46.917Z,37.52
2018-07-27T08:45:46.906Z,35.74
2018-07-27T08:46:46.896Z,38.85
2018-07-27T08:47:46.913Z,37.09
2018-07-27T08:48:46.914Z,38.84
2018-07-27T08:49:46.874Z,38.93
2018-07-27T08:50:46.858Z,38.84
2018-07-27T08:51:46.858Z,38.92
2018-07-27T08:52:46.860Z,38.33
2018-07-27T08:53:46.894Z,37.15
2018-07-27T08:54:46.829Z,38.33
2018-07-27T08:55:46.812Z,34.78
2018-07-27T08:56:46.822Z,37.82
2018-07-27T08:57:46.792Z,34.30
2018-07-27T08:58:46.792Z,37.81
2018-07-27T08:59:46.771Z,34.86
2018-07-27T09:00:46.768Z,33.77
2018-07-27T09:01:46.761Z,34.93
2018-07-27T09:02:46.801Z,35.42
2018-07-27T09:03:46.788Z,34.42
2018-07-27T09:04:46.723Z,33.54
2018-07-27T09:05:46.726Z,33.92
2018-07-27T09:06:46.703Z,31.56
2018-07-27T09:07:46.715Z,32.32
2018-07-27T09:08:46.684Z,36.62
2018-07-27T09:09:46.674Z,35.33
2018-07-27T09:10:46.666Z,33.77
2018-07-27T09:11:46.656Z,35.72
2018-07-27T09:12:46.681Z,34.16
2018-07-27T09:13:46.676Z,37.87
2018-07-27T09:14:46.629Z,34.34
2018-07-27T09:15:46.617Z,37.17
2018-07-27T09:16:46.606Z,39.02
2018-07-27T09:17:46.617Z,34.45
2018-07-27T09:18:46.592Z,32.01
2018-07-27T09:19:46.587Z,31.72
2018-07-27T09:20:46.570Z,35.04
2018-07-27T09:21:46.573Z,35.80
2018-07-27T09:22:46.568Z,34.34
2018-07-27T09:23:46.550Z,34.83
2018-07-27T09:24:46.686Z,37.95
2018-07-27T09:25:46.529Z,35.80
2018-07-27T09:26:46.515Z,35.02
2018-07-27T09:27:46.531Z,32.19
2018-07-27T09:28:46.497Z,33.46
2018-07-27T09:29:46.497Z,34.34
2018-07-27T09:30:46.491Z,34.14
2018-07-27T09:31:46.466Z,31.99
2018-07-27T09:32:46.464Z,32.68
2018-07-27T09:33:46.471Z,32.76
2018-07-27T09:34:46.437Z,31.20
2018-07-27T09:35:46.430Z,33.72
2018-07-27T09:36:46.418Z,34.59
2018-07-27T09:37:46.414Z,34.61
2018-07-27T09:38:46.399Z,36.45
2018-07-27T09:39:46.391Z,35.28
2018-07-27T09:40:46.380Z,33.54
2018-07-27T09:41:46.369Z,34.99
2018-07-27T09:42:46.362Z,31.96
2018-07-27T09:43:46.353Z,31.96
2018-07-27T09:44:46.345Z,28.94
2018-07-27T09:45:46.330Z,34.40
2018-07-27T09:46:46.356Z,34.99
2018-07-27T09:47:46.356Z,32.94
2018-07-27T09:48:46.323Z,35.65
2018-07-27T09:49:46.298Z,34.66
2018-07-27T09:50:46.280Z,33.41
2018-07-27T09:51:46.357Z,33.80
2018-07-27T09:52:46.319Z,34.29
2018-07-27T09:53:46.280Z,34.39
2018-07-27T09:54:46.240Z,28.83
2018-07-27T09:55:46.232Z,33.41
2018-07-27T09:56:46.225Z,31.56
2018-07-27T09:57:46.279Z,29.61
2018-07-27T09:58:46.247Z,30.10
2018-07-27T09:59:46.190Z,29.24
2018-07-27T10:00:46.185Z,29.14
2018-07-27T10:01:46.202Z,34.50
2018-07-27T10:02:46.166Z,34.11
2018-07-27T10:03:46.153Z,34.32
2018-07-27T10:04:46.140Z,33.56
2018-07-27T10:05:46.182Z,33.75
2018-07-27T10:06:46.124Z,32.99
2018-07-27T10:07:46.137Z,39.04
2018-07-27T10:08:46.116Z,34.47
2018-07-27T10:09:46.090Z,34.47
2018-07-27T10:10:46.077Z,32.34
2018-07-27T10:11:46.068Z,38.20
2018-07-27T10:12:46.112Z,34.50
2018-07-27T10:13:46.075Z,37.43
2018-07-27T10:14:46.046Z,36.28
2018-07-27T10:15:46.027Z,36.96
2018-07-27T10:16:46.022Z,32.39
2018-07-27T10:17:46.006Z,37.77
2018-07-27T10:18:45.995Z,34.93
2018-07-27T10:19:45.987Z,37.47
2018-07-27T10:20:45.974Z,38.94
2018-07-27T10:21:45.966Z,38.26
2018-07-27T10:22:45.961Z,34.64
2018-07-27T10:23:45.960Z,32.95
2018-07-27T10:24:45.992Z,35.11
2018-07-27T10:25:45.938Z,35.89
2018-07-27T10:26:45.912Z,38.34
2018-07-27T10:27:45.901Z,35.09
2018-07-27T10:28:45.890Z,36.75
2018-07-27T10:29:45.883Z,33.53
2018-07-27T10:30:45.868Z,33.53
2018-07-27T10:31:45.875Z,31.77
2018-07-27T10:32:45.851Z,30.40
2018-07-27T10:33:45.838Z,32.63
2018-07-27T10:34:45.830Z,34.48
2018-07-27T10:35:45.820Z,32.04
2018-07-27T10:36:45.822Z,35.75
2018-07-27T10:37:46.009Z,34.48
2018-07-27T10:38:45.794Z,31.07
2018-07-27T10:39:45.844Z,33.89
2018-07-27T10:40:45.764Z,33.70
2018-07-27T10:41:45.752Z,33.70
2018-07-27T10:42:45.832Z,38.40
2018-07-27T10:43:45.748Z,31.85
2018-07-27T10:44:45.732Z,29.70
2018-07-27T10:45:45.713Z,37.01
2018-07-27T10:46:45.714Z,33.40
2018-07-27T10:47:45.696Z,33.89
2018-07-27T10:48:45.697Z,32.32
2018-07-27T10:49:45.669Z,31.84
2018-07-27T10:50:45.662Z,33.59
2018-07-27T10:51:45.676Z,32.32
2018-07-27T10:52:45.642Z,34.18
2018-07-27T10:53:45.630Z,32.91
2018-07-27T10:54:45.617Z,32.13
2018-07-27T10:55:45.613Z,34.77
2018-07-27T10:56:45.596Z,30.86
2018-07-27T10:57:45.585Z,32.24
2018-07-27T10:58:45.576Z,29.11
2018-07-27T10:59:45.566Z,29.49
2018-07-27T11:00:45.581Z,34.67
2018-07-27T11:01:45.548Z,31.92
2018-07-27T11:02:45.786Z,30.74
2018-07-27T11:03:45.524Z,29.38
2018-07-27T11:04:45.543Z,29.28
2018-07-27T11:05:45.504Z,32.21
2018-07-27T11:06:45.498Z,35.33
2018-07-27T11:07:45.483Z,30.65
2018-07-27T11:08:45.478Z,32.89
2018-07-27T11:09:45.472Z,30.37
2018-07-27T11:10:45.481Z,31.05
2018-07-27T11:11:45.451Z,32.42
2018-07-27T11:12:45.432Z,31.52
2018-07-27T11:13:45.423Z,32.11
2018-07-27T11:14:45.416Z,32.11
2018-07-27T11:15:45.402Z,28.50
2018-07-27T11:16:45.404Z,29.56
2018-07-27T11:17:45.453Z,30.71
2018-07-27T11:18:45.374Z,31.88
2018-07-27T11:19:45.368Z,31.98
2018-07-27T11:20:45.353Z,30.52
2018-07-27T11:21:45.364Z,33.43
2018-07-27T11:22:45.335Z,32.47
2018-07-27T11:23:45.325Z,30.90
2018-07-27T11:24:45.318Z,27.78
2018-07-27T11:25:45.309Z,31.28
2018-07-27T11:26:45.326Z,31.87
2018-07-27T11:27:45.290Z,34.19
2018-07-27T11:28:45.285Z,28.05
2018-07-27T11:29:45.278Z,28.53
2018-07-27T11:30:45.281Z,25.98
2018-07-27T11:31:45.340Z,28.19
2018-07-27T11:32:45.291Z,31.18
2018-07-27T11:33:45.262Z,29.22
2018-07-27T11:34:45.237Z,28.70
2018-07-27T11:35:45.231Z,28.20
2018-07-27T11:36:45.232Z,23.25
2018-07-27T11:37:45.215Z,27.21
2018-07-27T11:38:45.220Z,25.63
2018-07-27T11:39:45.197Z,26.20
2018-07-27T11:40:45.189Z,24.44
2018-07-27T11:41:45.208Z,28.39
2018-07-27T11:42:45.180Z,25.67
2018-07-27T11:43:45.175Z,21.80
2018-07-27T11:44:45.163Z,22.93
2018-07-27T11:45:45.162Z,25.60
2018-07-27T11:46:45.180Z,25.32
2018-07-27T11:47:45.176Z,23.38
2018-07-27T11:48:45.129Z,22.52
2018-07-27T11:49:45.125Z,22.61
2018-07-27T11:50:45.119Z,23.19
2018-07-27T11:51:45.139Z,22.61
2018-07-27T11:52:45.105Z,21.75
2018-07-27T11:53:45.101Z,21.44
2018-07-27T11:54:45.090Z,22.69
2018-07-27T11:55:45.113Z,20.75
2018-07-27T11:56:45.103Z,21.23
2018-07-27T11:57:45.066Z,20.94
2018-07-27T11:58:45.084Z,21.21
2018-07-27T11:59:45.061Z,19.67
2018-07-27T12:00:45.048Z,21.39
2018-07-27T12:01:45.119Z,20.91
2018-07-27T12:02:45.038Z,18.88
2018-07-27T12:03:45.042Z,19.45
2018-07-27T12:04:45.021Z,20.09
2018-07-27T12:05:45.079Z,19.42
2018-07-27T12:06:45.023Z,19.64
2018-07-27T12:07:45.003Z,19.56
2018-07-27T12:08:44.995Z,19.27
2018-07-27T12:09:45.044Z,21.00
2018-07-27T12:10:45.000Z,18.29
2018-07-27T12:11:44.991Z,21.47
2018-07-27T12:12:44.986Z,19.46
2018-07-27T12:13:45.035Z,22.15
2018-07-27T12:14:45.029Z,18.98
2018-07-27T12:15:44.945Z,22.52
2018-07-27T12:16:44.942Z,22.81
2018-07-27T12:17:44.935Z,21.95
2018-07-27T12:18:44.933Z,18.87
2018-07-27T12:19:44.927Z,21.66
2018-07-27T12:20:45.021Z,19.45
2018-07-27T12:21:45.286Z,20.70
2018-07-27T12:22:44.910Z,20.50
2018-07-27T12:23:44.895Z,21.64
2018-07-27T12:24:44.928Z,19.43
2018-07-27T12:25:44.890Z,21.81
2018-07-27T12:26:44.882Z,18.26
2018-07-27T12:27:44.890Z,17.88
2018-07-27T12:28:44.865Z,18.63
2018-07-27T12:29:44.897Z,18.15
2018-07-27T12:30:44.889Z,18.25
2018-07-27T12:31:44.872Z,18.52
2018-07-27T12:32:44.934Z,18.81
2018-07-27T12:33:44.836Z,19.42
2018-07-27T12:34:44.832Z,20.01
2018-07-27T12:35:44.831Z,19.23
2018-07-27T12:36:44.831Z,19.87
2018-07-27T12:37:44.813Z,20.45
2018-07-27T12:38:44.803Z,20.33
2018-07-27T12:39:44.804Z,20.53
2018-07-27T12:40:45.175Z,20.62
2018-07-27T12:41:45.019Z,21.93
2018-07-27T12:42:44.871Z,18.98
2018-07-27T12:43:44.778Z,20.70
2018-07-27T12:44:44.773Z,21.75
2018-07-27T12:45:44.798Z,18.04
2018-07-27T12:46:44.776Z,17.55
2018-07-27T12:47:44.828Z,19.18
2018-07-27T12:48:44.777Z,18.99
2018-07-27T12:49:44.759Z,19.09
2018-07-27T12:50:44.729Z,20.62
2018-07-27T12:51:44.782Z,19.46
2018-07-27T12:52:44.789Z,19.18